sensor_id;sensor_type;location;lat;lon;timestamp;P1;durP1;ratioP1;P2;durP2;ratioP2
53549;SDS011;67273;52.914;-0.982;2023-04-12T00:01:18;3.72;;;1.50;;
53549;SDS011;67273;52.914;-0.982;2023-04-12T00:03:45;5.00;;;1.60;;
53549;SDS011;67273;52.914;-0.982;2023-04-12T00:06:14;2.88;;;1.08;;
53549;SDS011;67273;52.914;-0.982;2023-04-12T00:08:41;2.90;;;1.35;;
53549;SDS011;67273;52.914;-0.982;2023-04-12T00:11:07;3.67;;;1.85;;
53549;SDS011;67273;52.914;-0.982;2023-04-12T00:13:32;2.22;;;1.27;;
53549;SDS011;67273;52.914;-0.982;2023-04-12T00:15:58;3.95;;;1.70;;
53549;SDS011;67273;52.914;-0.982;2023-04-12T00:18:24;3.72;;;1.65;;
53549;SDS011;67273;52.914;-0.982;2023-04-12T00:20:51;2.80;;;1.17;;
53549;SDS011;67273;52.914;-0.982;2023-04-12T00:23:17;3.35;;;1.48;;
53549;SDS011;67273;52.914;-0.982;2023-04-12T00:25:43;3.25;;;1.50;;
53549;SDS011;67273;52.914;-0.982;2023-04-12T00:28:08;3.40;;;1.50;;
53549;SDS011;67273;52.914;-0.982;2023-04-12T00:30:34;2.63;;;1.50;;
53549;SDS011;67273;52.914;-0.982;2023-04-12T00:33:00;4.22;;;1.48;;
53549;SDS011;67273;52.914;-0.982;2023-04-12T00:35:26;3.33;;;1.50;;
53549;SDS011;67273;52.914;-0.982;2023-04-12T00:37:53;2.78;;;1.48;;
53549;SDS011;67273;52.914;-0.982;2023-04-12T00:40:19;2.45;;;1.40;;
53549;SDS011;67273;52.914;-0.982;2023-04-12T00:42:45;3.20;;;1.48;;
53549;SDS011;67273;52.914;-0.982;2023-04-12T00:45:11;2.58;;;1.40;;
53549;SDS011;67273;52.914;-0.982;2023-04-12T00:47:38;2.50;;;1.60;;
53549;SDS011;67273;52.914;-0.982;2023-04-12T00:50:07;2.90;;;1.48;;
53549;SDS011;67273;52.914;-0.982;2023-04-12T00:52:33;3.58;;;1.52;;
53549;SDS011;67273;52.914;-0.982;2023-04-12T00:55:01;3.40;;;1.52;;
53549;SDS011;67273;52.914;-0.982;2023-04-12T00:57:28;3.95;;;1.70;;
53549;SDS011;67273;52.914;-0.982;2023-04-12T00:59:58;2.78;;;1.23;;
53549;SDS011;67273;52.914;-0.982;2023-04-12T01:02:24;3.70;;;1.50;;
53549;SDS011;67273;52.914;-0.982;2023-04-12T01:04:50;2.80;;;1.48;;
53549;SDS011;67273;52.914;-0.982;2023-04-12T01:07:19;2.70;;;1.38;;
53549;SDS011;67273;52.914;-0.982;2023-04-12T01:09:56;3.08;;;1.30;;
53549;SDS011;67273;52.914;-0.982;2023-04-12T01:12:34;3.00;;;1.38;;
53549;SDS011;67273;52.914;-0.982;2023-04-12T01:15:11;4.03;;;1.33;;
53549;SDS011;67273;52.914;-0.982;2023-04-12T01:17:41;2.28;;;1.38;;
53549;SDS011;67273;52.914;-0.982;2023-04-12T01:20:13;2.00;;;1.38;;
53549;SDS011;67273;52.914;-0.982;2023-04-12T01:22:52;2.60;;;1.40;;
53549;SDS011;67273;52.914;-0.982;2023-04-12T01:25:39;3.13;;;1.25;;
53549;SDS011;67273;52.914;-0.982;2023-04-12T01:28:25;2.80;;;1.33;;
53549;SDS011;67273;52.914;-0.982;2023-04-12T01:30:53;1.85;;;1.10;;
53549;SDS011;67273;52.914;-0.982;2023-04-12T01:33:20;3.53;;;1.30;;
53549;SDS011;67273;52.914;-0.982;2023-04-12T01:35:48;2.88;;;1.40;;
53549;SDS011;67273;52.914;-0.982;2023-04-12T01:38:15;2.40;;;1.38;;
53549;SDS011;67273;52.914;-0.982;2023-04-12T01:40:42;2.80;;;1.33;;
53549;SDS011;67273;52.914;-0.982;2023-04-12T01:43:09;2.50;;;1.40;;
53549;SDS011;67273;52.914;-0.982;2023-04-12T01:45:38;2.17;;;1.23;;
53549;SDS011;67273;52.914;-0.982;2023-04-12T01:48:05;2.72;;;1.35;;
53549;SDS011;67273;52.914;-0.982;2023-04-12T01:50:37;4.45;;;1.50;;
53549;SDS011;67273;52.914;-0.982;2023-04-12T01:53:10;2.88;;;1.40;;
53549;SDS011;67273;52.914;-0.982;2023-04-12T01:55:44;3.03;;;1.30;;
53549;SDS011;67273;52.914;-0.982;2023-04-12T01:58:13;3.97;;;1.30;;
53549;SDS011;67273;52.914;-0.982;2023-04-12T02:00:42;2.40;;;1.30;;
53549;SDS011;67273;52.914;-0.982;2023-04-12T02:03:09;3.10;;;1.20;;
53549;SDS011;67273;52.914;-0.982;2023-04-12T02:05:36;1.75;;;1.08;;
53549;SDS011;67273;52.914;-0.982;2023-04-12T02:08:02;3.15;;;1.23;;
53549;SDS011;67273;52.914;-0.982;2023-04-12T02:10:29;1.52;;;1.10;;
53549;SDS011;67273;52.914;-0.982;2023-04-12T02:12:57;2.40;;;1.27;;
53549;SDS011;67273;52.914;-0.982;2023-04-12T02:15:23;2.28;;;1.15;;
53549;SDS011;67273;52.914;-0.982;2023-04-12T02:17:51;3.50;;;1.50;;
53549;SDS011;67273;52.914;-0.982;2023-04-12T02:20:18;2.45;;;1.30;;
53549;SDS011;67273;52.914;-0.982;2023-04-12T02:22:44;2.25;;;1.30;;
53549;SDS011;67273;52.914;-0.982;2023-04-12T02:25:11;1.48;;;1.00;;
53549;SDS011;67273;52.914;-0.982;2023-04-12T02:27:37;1.83;;;1.00;;
53549;SDS011;67273;52.914;-0.982;2023-04-12T02:30:04;1.63;;;1.25;;
53549;SDS011;67273;52.914;-0.982;2023-04-12T02:32:33;2.35;;;1.20;;
53549;SDS011;67273;52.914;-0.982;2023-04-12T02:35:11;2.65;;;1.17;;
53549;SDS011;67273;52.914;-0.982;2023-04-12T02:37:38;3.08;;;1.08;;
53549;SDS011;67273;52.914;-0.982;2023-04-12T02:40:06;1.98;;;1.00;;
53549;SDS011;67273;52.914;-0.982;2023-04-12T02:42:36;1.42;;;1.10;;
53549;SDS011;67273;52.914;-0.982;2023-04-12T02:45:02;1.08;;;0.90;;
53549;SDS011;67273;52.914;-0.982;2023-04-12T02:47:28;1.63;;;1.08;;
53549;SDS011;67273;52.914;-0.982;2023-04-12T02:49:56;1.40;;;1.02;;
53549;SDS011;67273;52.914;-0.982;2023-04-12T02:52:25;2.40;;;1.23;;
53549;SDS011;67273;52.914;-0.982;2023-04-12T02:55:06;1.88;;;1.00;;
53549;SDS011;67273;52.914;-0.982;2023-04-12T02:57:33;1.27;;;0.98;;
53549;SDS011;67273;52.914;-0.982;2023-04-12T03:00:00;1.80;;;1.10;;
53549;SDS011;67273;52.914;-0.982;2023-04-12T03:02:39;1.40;;;1.00;;
53549;SDS011;67273;52.914;-0.982;2023-04-12T03:05:08;1.90;;;1.00;;
53549;SDS011;67273;52.914;-0.982;2023-04-12T03:07:41;1.58;;;1.00;;
53549;SDS011;67273;52.914;-0.982;2023-04-12T03:10:08;2.42;;;1.02;;
53549;SDS011;67273;52.914;-0.982;2023-04-12T03:12:40;1.23;;;0.85;;
53549;SDS011;67273;52.914;-0.982;2023-04-12T03:15:17;1.73;;;1.05;;
53549;SDS011;67273;52.914;-0.982;2023-04-12T03:17:46;1.67;;;1.00;;
53549;SDS011;67273;52.914;-0.982;2023-04-12T03:20:14;2.10;;;1.17;;
53549;SDS011;67273;52.914;-0.982;2023-04-12T03:22:48;1.58;;;1.08;;
53549;SDS011;67273;52.914;-0.982;2023-04-12T03:25:15;1.55;;;1.00;;
53549;SDS011;67273;52.914;-0.982;2023-04-12T03:27:52;1.33;;;0.80;;
53549;SDS011;67273;52.914;-0.982;2023-04-12T03:30:20;1.17;;;0.80;;
53549;SDS011;67273;52.914;-0.982;2023-04-12T03:32:47;2.08;;;1.20;;
53549;SDS011;67273;52.914;-0.982;2023-04-12T03:35:13;1.10;;;0.70;;
53549;SDS011;67273;52.914;-0.982;2023-04-12T03:37:41;1.05;;;0.88;;
53549;SDS011;67273;52.914;-0.982;2023-04-12T03:40:11;2.72;;;1.10;;
53549;SDS011;67273;52.914;-0.982;2023-04-12T03:42:42;1.37;;;0.90;;
53549;SDS011;67273;52.914;-0.982;2023-04-12T03:45:12;0.80;;;0.65;;
53549;SDS011;67273;52.914;-0.982;2023-04-12T03:47:41;1.63;;;0.90;;
53549;SDS011;67273;52.914;-0.982;2023-04-12T03:50:08;1.60;;;1.02;;
53549;SDS011;67273;52.914;-0.982;2023-04-12T03:52:35;1.52;;;0.82;;
53549;SDS011;67273;52.914;-0.982;2023-04-12T03:55:05;1.00;;;0.90;;
53549;SDS011;67273;52.914;-0.982;2023-04-12T03:57:33;1.02;;;0.80;;
53549;SDS011;67273;52.914;-0.982;2023-04-12T04:00:00;2.47;;;0.95;;
53549;SDS011;67273;52.914;-0.982;2023-04-12T04:02:43;2.63;;;1.03;;
53549;SDS011;67273;52.914;-0.982;2023-04-12T04:05:09;2.30;;;0.90;;
53549;SDS011;67273;52.914;-0.982;2023-04-12T04:07:37;2.22;;;1.00;;
53549;SDS011;67273;52.914;-0.982;2023-04-12T04:10:03;1.23;;;0.90;;
53549;SDS011;67273;52.914;-0.982;2023-04-12T04:12:35;1.67;;;1.05;;
53549;SDS011;67273;52.914;-0.982;2023-04-12T04:15:01;0.73;;;0.65;;
53549;SDS011;67273;52.914;-0.982;2023-04-12T04:17:30;1.60;;;0.68;;
53549;SDS011;67273;52.914;-0.982;2023-04-12T04:19:56;2.08;;;0.80;;
53549;SDS011;67273;52.914;-0.982;2023-04-12T04:22:22;0.70;;;0.70;;
53549;SDS011;67273;52.914;-0.982;2023-04-12T04:24:50;1.48;;;0.90;;
53549;SDS011;67273;52.914;-0.982;2023-04-12T04:27:17;1.13;;;0.88;;
53549;SDS011;67273;52.914;-0.982;2023-04-12T04:29:47;1.50;;;0.93;;
53549;SDS011;67273;52.914;-0.982;2023-04-12T04:32:15;1.13;;;0.80;;
53549;SDS011;67273;52.914;-0.982;2023-04-12T04:34:42;1.00;;;0.70;;
53549;SDS011;67273;52.914;-0.982;2023-04-12T04:37:14;2.67;;;0.80;;
53549;SDS011;67273;52.914;-0.982;2023-04-12T04:39:42;1.17;;;0.80;;
53549;SDS011;67273;52.914;-0.982;2023-04-12T04:42:09;1.25;;;0.90;;
53549;SDS011;67273;52.914;-0.982;2023-04-12T04:44:37;2.03;;;0.98;;
53549;SDS011;67273;52.914;-0.982;2023-04-12T04:47:07;2.00;;;1.00;;
53549;SDS011;67273;52.914;-0.982;2023-04-12T04:49:33;2.17;;;1.00;;
53549;SDS011;67273;52.914;-0.982;2023-04-12T04:52:05;1.58;;;0.77;;
53549;SDS011;67273;52.914;-0.982;2023-04-12T04:54:33;1.77;;;0.98;;
53549;SDS011;67273;52.914;-0.982;2023-04-12T04:56:59;1.73;;;0.95;;
53549;SDS011;67273;52.914;-0.982;2023-04-12T04:59:26;2.75;;;0.93;;
53549;SDS011;67273;52.914;-0.982;2023-04-12T05:01:57;0.82;;;0.80;;
53549;SDS011;67273;52.914;-0.982;2023-04-12T05:04:24;1.90;;;0.75;;
53549;SDS011;67273;52.914;-0.982;2023-04-12T05:06:52;1.50;;;0.80;;
53549;SDS011;67273;52.914;-0.982;2023-04-12T05:09:21;1.02;;;0.80;;
53549;SDS011;67273;52.914;-0.982;2023-04-12T05:11:54;2.17;;;1.00;;
53549;SDS011;67273;52.914;-0.982;2023-04-12T05:14:19;1.02;;;0.85;;
53549;SDS011;67273;52.914;-0.982;2023-04-12T05:16:45;1.52;;;0.93;;
53549;SDS011;67273;52.914;-0.982;2023-04-12T05:19:11;1.88;;;0.90;;
53549;SDS011;67273;52.914;-0.982;2023-04-12T05:21:40;1.20;;;0.70;;
53549;SDS011;67273;52.914;-0.982;2023-04-12T05:24:06;2.15;;;1.00;;
53549;SDS011;67273;52.914;-0.982;2023-04-12T05:26:35;1.58;;;0.95;;
53549;SDS011;67273;52.914;-0.982;2023-04-12T05:29:05;1.83;;;0.98;;
53549;SDS011;67273;52.914;-0.982;2023-04-12T05:31:31;1.33;;;0.88;;
53549;SDS011;67273;52.914;-0.982;2023-04-12T05:34:02;1.75;;;0.90;;
53549;SDS011;67273;52.914;-0.982;2023-04-12T05:36:33;1.52;;;0.82;;
53549;SDS011;67273;52.914;-0.982;2023-04-12T05:39:03;1.40;;;0.80;;
53549;SDS011;67273;52.914;-0.982;2023-04-12T05:41:30;1.23;;;0.80;;
53549;SDS011;67273;52.914;-0.982;2023-04-12T05:43:56;2.20;;;0.90;;
53549;SDS011;67273;52.914;-0.982;2023-04-12T05:46:23;2.28;;;0.93;;
53549;SDS011;67273;52.914;-0.982;2023-04-12T05:48:49;1.38;;;1.02;;
53549;SDS011;67273;52.914;-0.982;2023-04-12T05:51:16;2.03;;;1.10;;
53549;SDS011;67273;52.914;-0.982;2023-04-12T05:53:42;1.83;;;0.95;;
53549;SDS011;67273;52.914;-0.982;2023-04-12T05:56:11;2.53;;;1.10;;
53549;SDS011;67273;52.914;-0.982;2023-04-12T05:58:37;1.30;;;0.70;;
53549;SDS011;67273;52.914;-0.982;2023-04-12T06:01:03;2.58;;;1.10;;
53549;SDS011;67273;52.914;-0.982;2023-04-12T06:03:30;1.95;;;1.10;;
53549;SDS011;67273;52.914;-0.982;2023-04-12T06:06:02;1.88;;;1.10;;
53549;SDS011;67273;52.914;-0.982;2023-04-12T06:08:30;1.45;;;0.90;;
53549;SDS011;67273;52.914;-0.982;2023-04-12T06:10:56;2.75;;;1.17;;
53549;SDS011;67273;52.914;-0.982;2023-04-12T06:13:23;1.77;;;1.05;;
53549;SDS011;67273;52.914;-0.982;2023-04-12T06:15:49;2.70;;;1.15;;
53549;SDS011;67273;52.914;-0.982;2023-04-12T06:18:15;1.90;;;1.00;;
53549;SDS011;67273;52.914;-0.982;2023-04-12T06:20:41;2.20;;;1.17;;
53549;SDS011;67273;52.914;-0.982;2023-04-12T06:23:07;1.75;;;1.10;;
53549;SDS011;67273;52.914;-0.982;2023-04-12T06:25:33;2.03;;;0.98;;
53549;SDS011;67273;52.914;-0.982;2023-04-12T06:28:00;2.13;;;1.15;;
53549;SDS011;67273;52.914;-0.982;2023-04-12T06:30:27;1.75;;;0.98;;
53549;SDS011;67273;52.914;-0.982;2023-04-12T06:32:53;1.15;;;0.82;;
53549;SDS011;67273;52.914;-0.982;2023-04-12T06:35:20;2.90;;;1.20;;
53549;SDS011;67273;52.914;-0.982;2023-04-12T06:37:46;3.40;;;1.27;;
53549;SDS011;67273;52.914;-0.982;2023-04-12T06:40:12;3.28;;;1.00;;
53549;SDS011;67273;52.914;-0.982;2023-04-12T06:42:38;3.85;;;1.30;;
53549;SDS011;67273;52.914;-0.982;2023-04-12T06:45:04;4.30;;;1.48;;
53549;SDS011;67273;52.914;-0.982;2023-04-12T06:47:32;7.47;;;1.50;;
53549;SDS011;67273;52.914;-0.982;2023-04-12T06:49:58;5.25;;;1.90;;
53549;SDS011;67273;52.914;-0.982;2023-04-12T06:52:23;11.50;;;2.40;;
53549;SDS011;67273;52.914;-0.982;2023-04-12T06:54:52;7.68;;;2.47;;
53549;SDS011;67273;52.914;-0.982;2023-04-12T06:57:17;8.50;;;2.22;;
53549;SDS011;67273;52.914;-0.982;2023-04-12T06:59:44;9.65;;;2.40;;
53549;SDS011;67273;52.914;-0.982;2023-04-12T07:02:09;8.07;;;2.22;;
53549;SDS011;67273;52.914;-0.982;2023-04-12T07:04:37;6.68;;;2.20;;
53549;SDS011;67273;52.914;-0.982;2023-04-12T07:07:03;7.93;;;1.95;;
53549;SDS011;67273;52.914;-0.982;2023-04-12T07:09:29;8.98;;;2.40;;
53549;SDS011;67273;52.914;-0.982;2023-04-12T07:11:56;9.57;;;2.50;;
53549;SDS011;67273;52.914;-0.982;2023-04-12T07:14:22;9.27;;;2.13;;
53549;SDS011;67273;52.914;-0.982;2023-04-12T07:16:48;8.75;;;2.08;;
53549;SDS011;67273;52.914;-0.982;2023-04-12T07:19:14;5.40;;;1.92;;
53549;SDS011;67273;52.914;-0.982;2023-04-12T07:21:42;6.20;;;1.95;;
53549;SDS011;67273;52.914;-0.982;2023-04-12T07:24:08;11.70;;;1.80;;
53549;SDS011;67273;52.914;-0.982;2023-04-12T07:26:34;4.53;;;1.88;;
53549;SDS011;67273;52.914;-0.982;2023-04-12T07:29:00;8.85;;;1.80;;
53549;SDS011;67273;52.914;-0.982;2023-04-12T07:31:26;6.90;;;1.83;;
53549;SDS011;67273;52.914;-0.982;2023-04-12T07:33:54;6.43;;;2.08;;
53549;SDS011;67273;52.914;-0.982;2023-04-12T07:36:20;6.78;;;1.88;;
53549;SDS011;67273;52.914;-0.982;2023-04-12T07:38:47;6.10;;;1.70;;
53549;SDS011;67273;52.914;-0.982;2023-04-12T07:41:15;6.35;;;1.85;;
53549;SDS011;67273;52.914;-0.982;2023-04-12T07:43:42;6.45;;;1.60;;
53549;SDS011;67273;52.914;-0.982;2023-04-12T07:46:08;5.38;;;1.48;;
53549;SDS011;67273;52.914;-0.982;2023-04-12T07:48:34;4.78;;;1.60;;
53549;SDS011;67273;52.914;-0.982;2023-04-12T07:50:59;6.32;;;1.60;;
53549;SDS011;67273;52.914;-0.982;2023-04-12T07:53:26;5.10;;;1.90;;
53549;SDS011;67273;52.914;-0.982;2023-04-12T07:55:54;5.13;;;1.80;;
53549;SDS011;67273;52.914;-0.982;2023-04-12T07:58:20;7.05;;;1.60;;
53549;SDS011;67273;52.914;-0.982;2023-04-12T08:00:47;6.47;;;2.10;;
53549;SDS011;67273;52.914;-0.982;2023-04-12T08:03:13;6.78;;;1.60;;
53549;SDS011;67273;52.914;-0.982;2023-04-12T08:05:39;3.55;;;1.42;;
53549;SDS011;67273;52.914;-0.982;2023-04-12T08:08:06;6.30;;;1.83;;
53549;SDS011;67273;52.914;-0.982;2023-04-12T08:10:34;6.57;;;1.80;;
53549;SDS011;67273;52.914;-0.982;2023-04-12T08:13:02;5.65;;;1.90;;
53549;SDS011;67273;52.914;-0.982;2023-04-12T08:15:28;8.30;;;1.80;;
53549;SDS011;67273;52.914;-0.982;2023-04-12T08:17:54;8.10;;;1.92;;
53549;SDS011;67273;52.914;-0.982;2023-04-12T08:20:20;4.18;;;1.50;;
53549;SDS011;67273;52.914;-0.982;2023-04-12T08:22:46;6.22;;;1.70;;
53549;SDS011;67273;52.914;-0.982;2023-04-12T08:25:13;6.97;;;2.08;;
53549;SDS011;67273;52.914;-0.982;2023-04-12T08:27:40;7.20;;;1.95;;
53549;SDS011;67273;52.914;-0.982;2023-04-12T08:30:09;5.07;;;1.80;;
53549;SDS011;67273;52.914;-0.982;2023-04-12T08:32:36;5.20;;;1.35;;
53549;SDS011;67273;52.914;-0.982;2023-04-12T08:35:02;6.78;;;1.85;;
53549;SDS011;67273;52.914;-0.982;2023-04-12T08:37:28;7.45;;;1.63;;
53549;SDS011;67273;52.914;-0.982;2023-04-12T08:39:54;4.45;;;1.73;;
53549;SDS011;67273;52.914;-0.982;2023-04-12T08:42:20;3.40;;;1.23;;
53549;SDS011;67273;52.914;-0.982;2023-04-12T08:44:46;3.85;;;1.65;;
53549;SDS011;67273;52.914;-0.982;2023-04-12T08:47:13;4.38;;;1.30;;
53549;SDS011;67273;52.914;-0.982;2023-04-12T08:49:41;6.00;;;1.30;;
53549;SDS011;67273;52.914;-0.982;2023-04-12T08:52:08;6.90;;;1.58;;
53549;SDS011;67273;52.914;-0.982;2023-04-12T08:54:35;4.80;;;1.30;;
53549;SDS011;67273;52.914;-0.982;2023-04-12T08:57:03;4.88;;;1.60;;
53549;SDS011;67273;52.914;-0.982;2023-04-12T08:59:34;4.03;;;1.45;;
53549;SDS011;67273;52.914;-0.982;2023-04-12T09:02:02;3.72;;;1.45;;
53549;SDS011;67273;52.914;-0.982;2023-04-12T09:04:29;3.17;;;1.25;;
53549;SDS011;67273;52.914;-0.982;2023-04-12T09:06:55;5.13;;;1.15;;
53549;SDS011;67273;52.914;-0.982;2023-04-12T09:12:05;2.50;;;1.20;;
53549;SDS011;67273;52.914;-0.982;2023-04-12T09:14:32;5.35;;;1.13;;
53549;SDS011;67273;52.914;-0.982;2023-04-12T09:16:58;5.35;;;1.40;;
53549;SDS011;67273;52.914;-0.982;2023-04-12T09:19:31;4.03;;;1.20;;
53549;SDS011;67273;52.914;-0.982;2023-04-12T09:21:58;4.13;;;1.50;;
53549;SDS011;67273;52.914;-0.982;2023-04-12T09:24:24;3.28;;;1.40;;
53549;SDS011;67273;52.914;-0.982;2023-04-12T09:26:55;7.18;;;1.40;;
53549;SDS011;67273;52.914;-0.982;2023-04-12T09:29:26;3.13;;;1.45;;
53549;SDS011;67273;52.914;-0.982;2023-04-12T09:31:55;5.60;;;1.48;;
53549;SDS011;67273;52.914;-0.982;2023-04-12T09:34:22;7.13;;;1.30;;
53549;SDS011;67273;52.914;-0.982;2023-04-12T09:36:49;2.83;;;1.35;;
53549;SDS011;67273;52.914;-0.982;2023-04-12T09:39:15;3.58;;;1.30;;
53549;SDS011;67273;52.914;-0.982;2023-04-12T09:41:41;2.67;;;1.40;;
53549;SDS011;67273;52.914;-0.982;2023-04-12T09:44:07;6.80;;;1.70;;
53549;SDS011;67273;52.914;-0.982;2023-04-12T09:46:33;5.20;;;2.15;;
53549;SDS011;67273;52.914;-0.982;2023-04-12T09:49:00;4.50;;;1.70;;
53549;SDS011;67273;52.914;-0.982;2023-04-12T09:51:28;5.07;;;1.65;;
53549;SDS011;67273;52.914;-0.982;2023-04-12T09:53:57;4.13;;;1.60;;
53549;SDS011;67273;52.914;-0.982;2023-04-12T09:56:26;3.33;;;1.40;;
53549;SDS011;67273;52.914;-0.982;2023-04-12T09:58:53;6.18;;;1.80;;
53549;SDS011;67273;52.914;-0.982;2023-04-12T10:01:21;4.03;;;1.50;;
53549;SDS011;67273;52.914;-0.982;2023-04-12T10:03:47;4.70;;;1.48;;
53549;SDS011;67273;52.914;-0.982;2023-04-12T10:06:13;4.50;;;1.48;;
53549;SDS011;67273;52.914;-0.982;2023-04-12T10:08:40;5.68;;;1.25;;
53549;SDS011;67273;52.914;-0.982;2023-04-12T10:11:08;4.80;;;1.38;;
53549;SDS011;67273;52.914;-0.982;2023-04-12T10:13:34;2.97;;;1.17;;
53549;SDS011;67273;52.914;-0.982;2023-04-12T10:16:02;3.35;;;1.30;;
53549;SDS011;67273;52.914;-0.982;2023-04-12T10:18:30;1.88;;;1.17;;
53549;SDS011;67273;52.914;-0.982;2023-04-12T10:20:59;4.70;;;1.38;;
53549;SDS011;67273;52.914;-0.982;2023-04-12T10:23:26;3.22;;;1.17;;
53549;SDS011;67273;52.914;-0.982;2023-04-12T10:25:52;3.50;;;1.30;;
53549;SDS011;67273;52.914;-0.982;2023-04-12T10:28:20;3.92;;;1.48;;
53549;SDS011;67273;52.914;-0.982;2023-04-12T10:30:47;3.45;;;1.35;;
53549;SDS011;67273;52.914;-0.982;2023-04-12T10:33:16;4.43;;;1.13;;
53549;SDS011;67273;52.914;-0.982;2023-04-12T10:38:43;3.20;;;1.23;;
53549;SDS011;67273;52.914;-0.982;2023-04-12T10:41:13;4.38;;;1.30;;
53549;SDS011;67273;52.914;-0.982;2023-04-12T10:43:42;3.97;;;1.20;;
53549;SDS011;67273;52.914;-0.982;2023-04-12T10:49:08;3.47;;;1.10;;
53549;SDS011;67273;52.914;-0.982;2023-04-12T10:51:34;4.03;;;1.25;;
53549;SDS011;67273;52.914;-0.982;2023-04-12T10:54:31;4.43;;;1.40;;
53549;SDS011;67273;52.914;-0.982;2023-04-12T10:57:00;4.20;;;1.20;;
53549;SDS011;67273;52.914;-0.982;2023-04-12T11:02:23;5.15;;;1.60;;
53549;SDS011;67273;52.914;-0.982;2023-04-12T11:05:04;7.85;;;1.50;;
53549;SDS011;67273;52.914;-0.982;2023-04-12T11:07:51;3.65;;;1.30;;
53549;SDS011;67273;52.914;-0.982;2023-04-12T11:10:36;5.72;;;1.52;;
53549;SDS011;67273;52.914;-0.982;2023-04-12T11:13:05;4.72;;;1.40;;
53549;SDS011;67273;52.914;-0.982;2023-04-12T11:15:34;3.20;;;1.23;;
53549;SDS011;67273;52.914;-0.982;2023-04-12T11:18:10;5.45;;;1.40;;
53549;SDS011;67273;52.914;-0.982;2023-04-12T11:20:37;3.92;;;1.30;;
53549;SDS011;67273;52.914;-0.982;2023-04-12T11:23:03;4.90;;;1.30;;
53549;SDS011;67273;52.914;-0.982;2023-04-12T11:25:30;5.10;;;1.20;;
53549;SDS011;67273;52.914;-0.982;2023-04-12T11:27:56;5.05;;;1.30;;
53549;SDS011;67273;52.914;-0.982;2023-04-12T11:30:26;4.00;;;1.45;;
53549;SDS011;67273;52.914;-0.982;2023-04-12T11:32:53;5.25;;;1.77;;
53549;SDS011;67273;52.914;-0.982;2023-04-12T11:35:18;4.00;;;1.40;;
53549;SDS011;67273;52.914;-0.982;2023-04-12T11:37:51;3.42;;;1.15;;
53549;SDS011;67273;52.914;-0.982;2023-04-12T11:40:20;3.55;;;1.40;;
53549;SDS011;67273;52.914;-0.982;2023-04-12T11:42:46;4.15;;;1.50;;
53549;SDS011;67273;52.914;-0.982;2023-04-12T11:45:13;3.83;;;1.23;;
53549;SDS011;67273;52.914;-0.982;2023-04-12T11:47:44;6.18;;;1.48;;
53549;SDS011;67273;52.914;-0.982;2023-04-12T11:50:12;3.08;;;1.23;;
53549;SDS011;67273;52.914;-0.982;2023-04-12T11:52:51;4.00;;;1.52;;
53549;SDS011;67273;52.914;-0.982;2023-04-12T11:55:17;4.38;;;1.50;;
53549;SDS011;67273;52.914;-0.982;2023-04-12T11:57:43;5.15;;;1.50;;
53549;SDS011;67273;52.914;-0.982;2023-04-12T12:00:18;4.43;;;1.30;;
53549;SDS011;67273;52.914;-0.982;2023-04-12T12:02:47;3.97;;;1.60;;
53549;SDS011;67273;52.914;-0.982;2023-04-12T12:05:14;4.82;;;1.38;;
53549;SDS011;67273;52.914;-0.982;2023-04-12T12:07:40;3.80;;;1.40;;
53549;SDS011;67273;52.914;-0.982;2023-04-12T12:10:07;3.25;;;1.20;;
53549;SDS011;67273;52.914;-0.982;2023-04-12T12:12:33;2.70;;;1.30;;
53549;SDS011;67273;52.914;-0.982;2023-04-12T12:14:59;11.43;;;1.42;;
53549;SDS011;67273;52.914;-0.982;2023-04-12T12:17:26;4.45;;;1.30;;
53549;SDS011;67273;52.914;-0.982;2023-04-12T12:19:55;4.63;;;1.23;;
53549;SDS011;67273;52.914;-0.982;2023-04-12T12:22:24;3.13;;;1.15;;
53549;SDS011;67273;52.914;-0.982;2023-04-12T12:24:50;4.88;;;1.38;;
53549;SDS011;67273;52.914;-0.982;2023-04-12T12:27:21;2.58;;;1.25;;
53549;SDS011;67273;52.914;-0.982;2023-04-12T12:29:48;2.35;;;1.30;;
53549;SDS011;67273;52.914;-0.982;2023-04-12T12:32:16;2.65;;;1.10;;
53549;SDS011;67273;52.914;-0.982;2023-04-12T12:34:48;3.60;;;1.23;;
53549;SDS011;67273;52.914;-0.982;2023-04-12T12:37:16;2.90;;;1.30;;
53549;SDS011;67273;52.914;-0.982;2023-04-12T12:39:59;3.08;;;1.23;;
53549;SDS011;67273;52.914;-0.982;2023-04-12T12:42:26;2.92;;;1.10;;
53549;SDS011;67273;52.914;-0.982;2023-04-12T12:44:52;2.55;;;1.10;;
53549;SDS011;67273;52.914;-0.982;2023-04-12T12:47:17;2.65;;;1.10;;
53549;SDS011;67273;52.914;-0.982;2023-04-12T12:49:43;2.65;;;1.40;;
53549;SDS011;67273;52.914;-0.982;2023-04-12T12:52:09;4.45;;;1.13;;
53549;SDS011;67273;52.914;-0.982;2023-04-12T12:54:35;2.45;;;1.20;;
53549;SDS011;67273;52.914;-0.982;2023-04-12T12:57:03;2.67;;;1.10;;
53549;SDS011;67273;52.914;-0.982;2023-04-12T12:59:28;2.75;;;1.33;;
53549;SDS011;67273;52.914;-0.982;2023-04-12T13:01:55;4.28;;;1.58;;
53549;SDS011;67273;52.914;-0.982;2023-04-12T13:04:20;3.45;;;1.25;;
53549;SDS011;67273;52.914;-0.982;2023-04-12T13:06:46;3.38;;;1.30;;
53549;SDS011;67273;52.914;-0.982;2023-04-12T13:09:12;3.55;;;1.35;;
53549;SDS011;67273;52.914;-0.982;2023-04-12T13:11:37;4.50;;;1.70;;
53549;SDS011;67273;52.914;-0.982;2023-04-12T13:14:04;4.40;;;1.50;;
53549;SDS011;67273;52.914;-0.982;2023-04-12T13:16:31;5.50;;;1.60;;
53549;SDS011;67273;52.914;-0.982;2023-04-12T13:18:56;3.50;;;1.40;;
53549;SDS011;67273;52.914;-0.982;2023-04-12T13:21:22;2.90;;;1.20;;
53549;SDS011;67273;52.914;-0.982;2023-04-12T13:23:48;3.97;;;1.60;;
53549;SDS011;67273;52.914;-0.982;2023-04-12T13:26:13;3.17;;;1.50;;
53549;SDS011;67273;52.914;-0.982;2023-04-12T13:28:39;6.35;;;1.60;;
53549;SDS011;67273;52.914;-0.982;2023-04-12T13:31:06;5.97;;;1.65;;
53549;SDS011;67273;52.914;-0.982;2023-04-12T13:33:32;10.85;;;1.80;;
53549;SDS011;67273;52.914;-0.982;2023-04-12T13:35:58;3.35;;;1.42;;
53549;SDS011;67273;52.914;-0.982;2023-04-12T13:38:23;5.88;;;1.50;;
53549;SDS011;67273;52.914;-0.982;2023-04-12T13:40:49;4.82;;;1.35;;
53549;SDS011;67273;52.914;-0.982;2023-04-12T13:43:15;4.63;;;1.30;;
53549;SDS011;67273;52.914;-0.982;2023-04-12T13:45:41;3.72;;;1.55;;
53549;SDS011;67273;52.914;-0.982;2023-04-12T13:48:08;4.45;;;1.73;;
53549;SDS011;67273;52.914;-0.982;2023-04-12T13:50:34;2.80;;;1.15;;
53549;SDS011;67273;52.914;-0.982;2023-04-12T13:53:00;3.88;;;1.60;;
53549;SDS011;67273;52.914;-0.982;2023-04-12T13:55:26;4.15;;;1.30;;
53549;SDS011;67273;52.914;-0.982;2023-04-12T13:57:51;4.65;;;1.60;;
53549;SDS011;67273;52.914;-0.982;2023-04-12T14:00:17;4.45;;;1.20;;
53549;SDS011;67273;52.914;-0.982;2023-04-12T14:02:44;5.45;;;1.42;;
53549;SDS011;67273;52.914;-0.982;2023-04-12T14:05:11;4.18;;;1.35;;
53549;SDS011;67273;52.914;-0.982;2023-04-12T14:07:37;3.20;;;1.13;;
53549;SDS011;67273;52.914;-0.982;2023-04-12T14:10:03;4.57;;;1.30;;
53549;SDS011;67273;52.914;-0.982;2023-04-12T14:12:29;2.65;;;1.35;;
53549;SDS011;67273;52.914;-0.982;2023-04-12T14:14:55;7.18;;;1.45;;
53549;SDS011;67273;52.914;-0.982;2023-04-12T14:17:21;2.75;;;1.10;;
53549;SDS011;67273;52.914;-0.982;2023-04-12T14:19:47;1.50;;;1.00;;
53549;SDS011;67273;52.914;-0.982;2023-04-12T14:22:14;3.60;;;0.95;;
53549;SDS011;67273;52.914;-0.982;2023-04-12T14:24:39;4.28;;;1.02;;
53549;SDS011;67273;52.914;-0.982;2023-04-12T14:27:05;4.40;;;1.30;;
53549;SDS011;67273;52.914;-0.982;2023-04-12T14:29:32;2.15;;;1.00;;
53549;SDS011;67273;52.914;-0.982;2023-04-12T14:31:58;2.38;;;1.08;;
53549;SDS011;67273;52.914;-0.982;2023-04-12T14:34:23;3.47;;;1.10;;
53549;SDS011;67273;52.914;-0.982;2023-04-12T14:36:49;3.28;;;1.13;;
53549;SDS011;67273;52.914;-0.982;2023-04-12T14:39:16;3.35;;;1.15;;
53549;SDS011;67273;52.914;-0.982;2023-04-12T14:41:42;4.75;;;1.00;;
53549;SDS011;67273;52.914;-0.982;2023-04-12T14:44:08;2.47;;;1.00;;
53549;SDS011;67273;52.914;-0.982;2023-04-12T14:46:34;5.88;;;1.17;;
53549;SDS011;67273;52.914;-0.982;2023-04-12T14:48:59;2.78;;;0.90;;